Time;durP1;ratioP1;P1;durP2;ratioP2;P2;SDS_P1;SDS_P2;PMS_P1;PMS_P2;Temp;Humidity;BMP_temperature;BMP_pressure;BME280_temperature;BME280_humidity;BME280_pressure;Samples;Min_cycle;Max_cycle;Signal;HPM_P1;HPM_P2
2022/11/05 00:09:34;;;;;;;21.85;14.23;;;;;;;;;;5073385;28;20082;-78
2022/11/05 00:17:32;;;;;;;23.02;14.20;;;;;;;;;;5065972;28;20390;-78
2022/11/05 00:19:57;;;;;;;22.60;13.75;;;;;;;;;;5072092;28;20059;-77
2022/11/05 00:25:15;;;;;;;22.90;16.92;;;;;;;;;;5064472;28;20453;-79
2022/11/05 00:27:41;;;;;;;20.17;15.10;;;;;;;;;;5071913;28;20528;-79
2022/11/05 00:30:08;;;;;;;19.65;15.65;;;;;;;;;;5069729;28;21434;-79
2022/11/05 00:32:33;;;;;;;23.55;15.52;;;;;;;;;;5070630;28;20451;-80
2022/11/05 00:34:59;;;;;;;20.50;14.90;;;;;;;;;;5070050;28;20096;-79
2022/11/05 00:37:26;;;;;;;18.33;14.88;;;;;;;;;;5061901;28;20029;-79
2022/11/05 00:39:51;;;;;;;32.15;16.70;;;;;;;;;;5064446;28;20398;-80
2022/11/05 00:45:00;;;;;;;19.30;14.95;;;;;;;;;;5065062;28;20461;-79
2022/11/05 00:50:10;;;;;;;21.13;14.60;;;;;;;;;;5061334;28;20493;-80
2022/11/05 00:55:20;;;;;;;22.60;14.95;;;;;;;;;;5081971;28;20030;-80
2022/11/05 00:57:45;;;;;;;20.95;14.77;;;;;;;;;;5082206;28;20016;-80
2022/11/05 01:00:11;;;;;;;24.53;17.10;;;;;;;;;;5085861;28;20078;-80
2022/11/05 01:02:36;;;;;;;22.13;17.00;;;;;;;;;;5083728;28;20628;-81
2022/11/05 01:05:01;;;;;;;21.20;17.65;;;;;;;;;;5084292;28;20040;-80
2022/11/05 01:07:26;;;;;;;22.67;17.60;;;;;;;;;;5088911;28;20016;-79
2022/11/05 01:09:52;;;;;;;22.50;18.35;;;;;;;;;;5075602;28;20027;-81
2022/11/05 01:12:17;;;;;;;27.92;20.55;;;;;;;;;;5074765;28;20069;-80
2022/11/05 01:14:42;;;;;;;29.55;20.88;;;;;;;;;;5079467;28;20059;-82
2022/11/05 01:17:07;;;;;;;25.90;21.27;;;;;;;;;;5059749;28;20040;-83
2022/11/05 01:19:32;;;;;;;32.95;22.60;;;;;;;;;;5071096;28;20072;-80
2022/11/05 01:21:58;;;;;;;25.92;22.02;;;;;;;;;;5077854;28;20040;-83
2022/11/05 01:24:23;;;;;;;32.28;23.45;;;;;;;;;;5072737;28;20039;-85
2022/11/05 01:26:48;;;;;;;35.15;22.58;;;;;;;;;;5072902;28;20524;-86
2022/11/05 01:29:13;;;;;;;26.65;21.85;;;;;;;;;;5073560;28;20012;-85
2022/11/05 01:31:39;;;;;;;28.25;21.70;;;;;;;;;;5065194;28;20021;-86
2022/11/05 01:34:04;;;;;;;27.25;21.77;;;;;;;;;;5074760;28;20016;-83
2022/11/05 01:36:29;;;;;;;29.77;20.42;;;;;;;;;;5073649;28;20032;-86
2022/11/05 01:38:54;;;;;;;35.80;22.00;;;;;;;;;;5071544;28;20021;-84
2022/11/05 01:41:20;;;;;;;30.25;22.02;;;;;;;;;;5074843;28;20366;-82
2022/11/05 01:43:46;;;;;;;31.58;22.35;;;;;;;;;;5074181;28;20040;-84
2022/11/05 01:46:12;;;;;;;29.83;22.08;;;;;;;;;;5074504;28;20103;-83
2022/11/05 01:48:38;;;;;;;30.63;22.27;;;;;;;;;;5073874;28;20440;-84
2022/11/05 01:51:03;;;;;;;29.35;22.60;;;;;;;;;;5073419;28;20021;-84
2022/11/05 01:53:35;;;;;;;30.87;23.27;;;;;;;;;;5074445;28;20377;-84
2022/11/05 01:56:05;;;;;;;35.53;23.58;;;;;;;;;;5061878;28;20632;-85
2022/11/05 01:58:33;;;;;;;24.48;21.38;;;;;;;;;;5073906;28;20482;-82
2022/11/05 02:00:59;;;;;;;28.10;22.17;;;;;;;;;;5074378;28;20024;-85
2022/11/05 02:03:24;;;;;;;34.67;24.08;;;;;;;;;;5073700;28;20029;-83
2022/11/05 02:05:51;;;;;;;27.25;21.80;;;;;;;;;;5071387;28;20024;-83
2022/11/05 02:08:39;;;;;;;32.97;24.73;;;;;;;;;;5074579;28;20459;-83
2022/11/05 02:11:05;;;;;;;30.60;23.90;;;;;;;;;;5069737;28;20036;-83
2022/11/05 02:13:30;;;;;;;33.88;23.08;;;;;;;;;;5075698;28;20023;-83
2022/11/05 02:16:04;;;;;;;26.65;21.55;;;;;;;;;;5073881;28;20390;-84
2022/11/05 02:19:01;;;;;;;30.33;24.58;;;;;;;;;;5070583;28;20414;-83
2022/11/05 02:21:45;;;;;;;29.90;23.02;;;;;;;;;;5062209;28;20078;-82
2022/11/05 02:24:27;;;;;;;30.30;23.43;;;;;;;;;;5081414;28;20035;-84
2022/11/05 02:26:52;;;;;;;30.90;22.48;;;;;;;;;;5065615;28;20021;-83
2022/11/05 02:29:26;;;;;;;32.13;22.63;;;;;;;;;;5073143;28;20095;-83
2022/11/05 02:31:51;;;;;;;;;;;;;;;;;;5073902;28;20267;-83
2022/11/05 02:34:17;;;;;;;30.17;21.70;;;;;;;;;;5072812;28;19908;-82
2022/11/05 02:36:45;;;;;;;26.40;21.77;;;;;;;;;;5068657;28;20029;-82
2022/11/05 02:39:17;;;;;;;29.02;23.25;;;;;;;;;;5064154;28;20017;-82
2022/11/05 02:41:43;;;;;;;30.15;24.55;;;;;;;;;;5073054;28;20532;-83
2022/11/05 02:44:23;;;;;;;30.33;21.43;;;;;;;;;;5073475;28;20104;-84
2022/11/05 02:46:54;;;;;;;32.47;22.02;;;;;;;;;;5057407;28;20282;-84
2022/11/05 02:49:27;;;;;;;32.63;22.48;;;;;;;;;;5066777;28;20024;-83
2022/11/05 02:51:57;;;;;;;31.45;24.00;;;;;;;;;;5063934;28;20017;-83
2022/11/05 02:54:25;;;;;;;29.63;24.05;;;;;;;;;;5070214;28;20016;-83
2022/11/05 02:56:52;;;;;;;30.27;22.27;;;;;;;;;;5071600;28;20012;-83
2022/11/05 02:59:17;;;;;;;30.63;22.80;;;;;;;;;;5057851;28;20017;-83
2022/11/05 03:01:43;;;;;;;34.85;22.23;;;;;;;;;;5063125;28;20490;-82
2022/11/05 03:04:10;;;;;;;32.42;23.15;;;;;;;;;;5063924;28;20085;-80
2022/11/05 03:06:48;;;;;;;34.67;23.42;;;;;;;;;;5062769;28;20016;-81
2022/11/05 03:09:22;;;;;;;35.28;22.83;;;;;;;;;;5076458;28;20035;-81
2022/11/05 03:12:06;;;;;;;30.60;23.50;;;;;;;;;;5072229;28;20025;-82
2022/11/05 03:14:46;;;;;;;30.50;23.53;;;;;;;;;;5064886;28;20024;-83
2022/11/05 03:17:16;;;;;;;26.95;21.55;;;;;;;;;;5050655;28;20139;-82
2022/11/05 03:19:42;;;;;;;27.15;20.63;;;;;;;;;;5069276;28;20026;-81
2022/11/05 03:22:10;;;;;;;31.63;23.13;;;;;;;;;;5056057;28;20009;-82
2022/11/05 03:24:37;;;;;;;29.73;21.80;;;;;;;;;;5064151;28;20326;-82
2022/11/05 03:27:03;;;;;;;29.70;22.17;;;;;;;;;;5071212;28;20047;-83
2022/11/05 03:29:31;;;;;;;31.83;22.75;;;;;;;;;;5072646;28;20063;-82
2022/11/05 03:31:58;;;;;;;36.67;24.27;;;;;;;;;;5072146;28;20475;-82
2022/11/05 03:34:32;;;;;;;33.75;22.48;;;;;;;;;;5058090;28;20067;-83
2022/11/05 03:36:58;;;;;;;44.83;25.30;;;;;;;;;;5072448;28;20033;-83
2022/11/05 03:39:32;;;;;;;34.47;23.95;;;;;;;;;;5072365;28;20035;-83
2022/11/05 03:41:58;;;;;;;32.40;24.48;;;;;;;;;;5059489;28;20020;-83
2022/11/05 03:44:26;;;;;;;39.40;24.98;;;;;;;;;;5072450;28;20039;-82
2022/11/05 03:46:53;;;;;;;30.23;23.88;;;;;;;;;;5064136;28;20047;-84
2022/11/05 03:49:21;;;;;;;27.23;22.35;;;;;;;;;;5066774;28;20106;-84
2022/11/05 03:51:46;;;;;;;43.78;23.60;;;;;;;;;;5070962;28;20024;-84
2022/11/05 03:54:12;;;;;;;34.77;23.87;;;;;;;;;;5072521;28;20340;-83
2022/11/05 03:56:49;;;;;;;28.25;22.10;;;;;;;;;;5070480;28;20282;-84
2022/11/05 03:59:14;;;;;;;31.58;21.33;;;;;;;;;;5060221;28;20032;-84
2022/11/05 04:01:40;;;;;;;27.88;21.15;;;;;;;;;;5070620;28;20025;-84
2022/11/05 04:04:06;;;;;;;31.85;21.40;;;;;;;;;;5071482;28;20077;-84
2022/11/05 04:14:43;;;;;;;29.25;20.27;;;;;;;;;;5072182;28;20625;-82
2022/11/05 04:17:08;;;;;;;25.08;18.70;;;;;;;;;;5071394;28;20012;-82
2022/11/05 04:25:06;;;;;;;26.83;18.50;;;;;;;;;;5076345;28;20094;-82
2022/11/05 04:27:31;;;;;;;21.83;16.88;;;;;;;;;;5061740;28;20013;-82
2022/11/05 04:32:40;;;;;;;22.63;15.35;;;;;;;;;;5093724;28;20103;-82
2022/11/05 04:35:06;;;;;;;31.98;16.48;;;;;;;;;;5075976;28;20107;-82
2022/11/05 04:37:31;;;;;;;23.40;16.58;;;;;;;;;;5089508;28;20032;-82
2022/11/05 04:39:56;;;;;;;21.15;16.85;;;;;;;;;;5075396;28;20024;-86
2022/11/05 04:42:21;;;;;;;26.60;16.35;;;;;;;;;;5075482;28;20025;-81
2022/11/05 04:44:46;;;;;;;22.05;16.30;;;;;;;;;;5075508;28;20064;-82
2022/11/05 04:47:12;;;;;;;21.87;16.67;;;;;;;;;;5064183;28;20371;-85
2022/11/05 04:49:37;;;;;;;20.55;16.00;;;;;;;;;;5072598;28;20642;-85
2022/11/05 04:52:02;;;;;;;27.38;15.77;;;;;;;;;;5075196;28;20395;-84
2022/11/05 04:54:27;;;;;;;25.15;15.43;;;;;;;;;;5075454;28;20383;-84
2022/11/05 04:56:53;;;;;;;25.58;15.05;;;;;;;;;;5075435;28;20021;-85
2022/11/05 04:59:18;;;;;;;29.02;16.52;;;;;;;;;;5075508;28;20028;-85
2022/11/05 05:01:43;;;;;;;21.13;15.82;;;;;;;;;;5076703;28;20097;-85
2022/11/05 05:04:08;;;;;;;25.02;15.82;;;;;;;;;;5075668;28;20072;-86
2022/11/05 05:06:33;;;;;;;21.90;14.90;;;;;;;;;;5071576;28;20540;-83
2022/11/05 05:08:59;;;;;;;23.20;15.55;;;;;;;;;;5082130;28;20024;-84
2022/11/05 05:11:24;;;;;;;18.50;13.40;;;;;;;;;;5080613;28;20043;-82
2022/11/05 05:13:49;;;;;;;21.80;14.97;;;;;;;;;;5075030;28;20362;-82
2022/11/05 05:16:20;;;;;;;21.25;14.05;;;;;;;;;;5068129;28;20878;-84
2022/11/05 05:18:45;;;;;;;27.77;15.43;;;;;;;;;;5062577;28;20143;-83
2022/11/05 05:23:54;;;;;;;19.58;14.10;;;;;;;;;;5075812;28;20032;-79
2022/11/05 05:26:19;;;;;;;22.02;14.55;;;;;;;;;;5083455;28;20016;-80
2022/11/05 05:28:44;;;;;;;19.65;14.35;;;;;;;;;;5079167;28;20031;-82
2022/11/05 05:31:10;;;;;;;18.58;13.18;;;;;;;;;;5073494;28;20044;-80
2022/11/05 05:33:35;;;;;;;20.35;14.10;;;;;;;;;;5073572;28;20017;-80
2022/11/05 05:36:01;;;;;;;26.50;14.33;;;;;;;;;;5069497;28;20033;-79
2022/11/05 05:38:26;;;;;;;19.80;13.48;;;;;;;;;;5073652;28;20324;-83
2022/11/05 05:40:55;;;;;;;20.20;13.15;;;;;;;;;;5074584;28;20017;-85
2022/11/05 05:43:21;;;;;;;19.83;13.68;;;;;;;;;;5074518;28;20466;-81
2022/11/05 05:45:46;;;;;;;25.43;14.80;;;;;;;;;;5074464;28;20030;-82
2022/11/05 05:48:11;;;;;;;17.80;13.25;;;;;;;;;;5072516;28;20335;-80
2022/11/05 05:50:36;;;;;;;20.23;14.23;;;;;;;;;;5073794;28;20055;-84
2022/11/05 05:53:02;;;;;;;21.30;14.18;;;;;;;;;;5074233;28;20017;-74
2022/11/05 05:55:27;;;;;;;19.67;13.48;;;;;;;;;;5073936;28;20023;-73
2022/11/05 05:57:52;;;;;;;20.80;14.98;;;;;;;;;;5073921;28;20023;-75
2022/11/05 06:00:18;;;;;;;23.35;15.48;;;;;;;;;;5068551;28;20872;-75
2022/11/05 06:02:43;;;;;;;25.88;14.45;;;;;;;;;;5066267;28;20094;-76
2022/11/05 06:05:08;;;;;;;22.08;14.35;;;;;;;;;;5070196;28;20032;-76
2022/11/05 06:07:34;;;;;;;18.08;14.25;;;;;;;;;;5073588;28;20018;-76
2022/11/05 06:09:59;;;;;;;18.50;14.95;;;;;;;;;;5073821;28;20028;-75
2022/11/05 06:12:24;;;;;;;18.40;13.63;;;;;;;;;;5070904;28;20030;-75
2022/11/05 06:14:49;;;;;;;18.43;14.13;;;;;;;;;;5058517;28;20012;-74
2022/11/05 06:17:15;;;;;;;29.50;15.70;;;;;;;;;;5074094;28;20265;-76
2022/11/05 06:19:40;;;;;;;23.80;15.05;;;;;;;;;;5081052;28;20023;-76
2022/11/05 06:22:05;;;;;;;26.75;16.52;;;;;;;;;;5093769;28;20031;-72
2022/11/05 06:24:30;;;;;;;27.25;15.88;;;;;;;;;;5075345;28;20057;-82
2022/11/05 06:26:56;;;;;;;23.00;15.57;;;;;;;;;;5078597;28;20089;-79
2022/11/05 06:29:21;;;;;;;18.60;14.40;;;;;;;;;;5073314;28;20043;-80
2022/11/05 06:31:46;;;;;;;20.70;14.82;;;;;;;;;;5067786;28;20498;-81
2022/11/05 06:34:11;;;;;;;25.50;15.97;;;;;;;;;;5058245;28;20371;-80
2022/11/05 06:36:36;;;;;;;22.10;15.55;;;;;;;;;;5057063;28;20752;-81
2022/11/05 06:39:02;;;;;;;22.38;15.35;;;;;;;;;;5082816;28;20090;-80
2022/11/05 06:41:27;;;;;;;20.88;15.05;;;;;;;;;;5068651;28;20025;-80
2022/11/05 06:43:52;;;;;;;35.70;15.83;;;;;;;;;;5068603;28;20040;-80
2022/11/05 06:46:18;;;;;;;26.70;15.98;;;;;;;;;;5069766;28;20267;-80
2022/11/05 06:48:43;;;;;;;22.45;15.50;;;;;;;;;;5069782;28;20482;-81
2022/11/05 06:51:08;;;;;;;23.42;15.88;;;;;;;;;;5056068;28;20530;-80
2022/11/05 06:53:34;;;;;;;29.13;17.75;;;;;;;;;;5068684;28;20470;-79
2022/11/05 06:56:03;;;;;;;25.00;16.90;;;;;;;;;;5068122;28;20099;-79
2022/11/05 06:58:29;;;;;;;26.83;18.13;;;;;;;;;;5054739;28;20023;-80
2022/11/05 07:00:58;;;;;;;21.02;16.85;;;;;;;;;;5069600;28;20021;-81
2022/11/05 07:03:23;;;;;;;23.23;17.35;;;;;;;;;;5055668;28;20020;-81
2022/11/05 07:05:49;;;;;;;34.08;18.63;;;;;;;;;;5063689;28;20029;-81
2022/11/05 07:08:15;;;;;;;26.92;17.83;;;;;;;;;;5072925;28;21066;-79
2022/11/05 07:10:40;;;;;;;33.05;19.63;;;;;;;;;;5075479;28;20032;-70
2022/11/05 07:13:05;;;;;;;27.95;19.75;;;;;;;;;;5061580;28;20116;-75
2022/11/05 07:15:31;;;;;;;28.73;20.95;;;;;;;;;;5064168;28;20103;-75
2022/11/05 07:17:57;;;;;;;25.15;20.55;;;;;;;;;;5047900;28;20020;-80
2022/11/05 07:20:22;;;;;;;28.67;20.92;;;;;;;;;;5066946;28;20048;-78
2022/11/05 07:22:48;;;;;;;28.23;21.60;;;;;;;;;;5055101;28;20063;-79
2022/11/05 07:25:13;;;;;;;32.03;20.55;;;;;;;;;;5062510;28;20043;-81
2022/11/05 07:27:42;;;;;;;25.15;20.63;;;;;;;;;;5069071;28;20031;-80
2022/11/05 07:30:08;;;;;;;33.72;21.95;;;;;;;;;;5058880;28;20028;-80
2022/11/05 07:32:39;;;;;;;27.80;21.50;;;;;;;;;;5064070;28;20035;-83
2022/11/05 07:35:05;;;;;;;26.75;21.80;;;;;;;;;;5048777;28;20019;-81
2022/11/05 07:37:30;;;;;;;30.27;21.90;;;;;;;;;;5060823;28;20044;-84
2022/11/05 07:39:55;;;;;;;31.98;22.30;;;;;;;;;;5064093;28;20558;-80
2022/11/05 07:42:21;;;;;;;38.92;23.60;;;;;;;;;;5061871;28;20051;-81
2022/11/05 07:44:46;;;;;;;39.83;23.05;;;;;;;;;;5057911;28;20092;-80
2022/11/05 07:47:11;;;;;;;31.53;23.47;;;;;;;;;;5048703;28;20124;-81
2022/11/05 07:49:36;;;;;;;30.10;21.60;;;;;;;;;;5059644;28;20263;-79
2022/11/05 07:52:02;;;;;;;29.40;21.42;;;;;;;;;;5063213;28;20127;-80
2022/11/05 07:54:27;;;;;;;38.05;23.77;;;;;;;;;;5070468;28;20386;-81
2022/11/05 07:56:52;;;;;;;35.90;22.73;;;;;;;;;;5066747;28;20027;-81
2022/11/05 07:59:17;;;;;;;39.25;24.52;;;;;;;;;;5060508;28;20028;-80
2022/11/05 08:01:43;;;;;;;32.65;24.25;;;;;;;;;;5069150;28;20037;-80
2022/11/05 08:04:08;;;;;;;34.67;22.55;;;;;;;;;;5069319;28;20019;-81
2022/11/05 08:06:33;;;;;;;33.90;23.27;;;;;;;;;;5060975;28;20025;-80
2022/11/05 08:08:58;;;;;;;42.75;25.50;;;;;;;;;;5063790;28;20289;-80
2022/11/05 08:11:24;;;;;;;28.95;23.90;;;;;;;;;;5062417;28;20510;-81
2022/11/05 08:13:49;;;;;;;33.70;24.00;;;;;;;;;;5076305;28;20012;-79
2022/11/05 08:16:14;;;;;;;39.40;24.43;;;;;;;;;;5065241;28;20111;-80
2022/11/05 08:18:40;;;;;;;34.42;25.05;;;;;;;;;;5065905;28;20375;-80
2022/11/05 08:21:05;;;;;;;37.45;25.63;;;;;;;;;;5066839;28;20013;-82
2022/11/05 08:23:31;;;;;;;39.53;26.77;;;;;;;;;;5061676;28;20039;-79
2022/11/05 08:25:56;;;;;;;41.38;26.50;;;;;;;;;;5075714;28;20028;-80
2022/11/05 08:28:22;;;;;;;35.00;24.23;;;;;;;;;;5065459;28;20025;-80
2022/11/05 08:30:51;;;;;;;49.50;28.45;;;;;;;;;;5060148;28;20028;-79
2022/11/05 08:33:16;;;;;;;35.03;25.98;;;;;;;;;;5074505;28;20546;-80
2022/11/05 08:35:41;;;;;;;37.47;26.42;;;;;;;;;;5059739;28;20119;-79
2022/11/05 08:38:09;;;;;;;31.25;25.88;;;;;;;;;;5060064;28;20040;-79
2022/11/05 08:40:35;;;;;;;46.35;27.77;;;;;;;;;;5065173;28;20025;-80
2022/11/05 08:43:04;;;;;;;37.22;26.00;;;;;;;;;;5049262;28;20059;-80
2022/11/05 08:45:29;;;;;;;36.58;26.88;;;;;;;;;;5062692;28;20029;-80
2022/11/05 08:48:14;;;;;;;36.15;26.00;;;;;;;;;;5051146;28;20374;-80
2022/11/05 08:50:39;;;;;;;36.47;25.13;;;;;;;;;;5055923;28;20039;-81
2022/11/05 08:53:05;;;;;;;36.25;27.58;;;;;;;;;;5070723;28;20035;-80
2022/11/05 08:55:31;;;;;;;35.60;26.20;;;;;;;;;;5069322;28;20544;-78
2022/11/05 08:58:00;;;;;;;36.53;25.80;;;;;;;;;;5068921;28;20074;-80
2022/11/05 09:00:26;;;;;;;34.08;25.83;;;;;;;;;;5069258;28;20023;-83
2022/11/05 09:02:52;;;;;;;30.02;24.58;;;;;;;;;;5069810;28;20025;-83
2022/11/05 09:05:17;;;;;;;33.30;25.08;;;;;;;;;;5058256;28;20545;-80
2022/11/05 09:07:42;;;;;;;37.50;23.20;;;;;;;;;;5050161;28;20020;-84
2022/11/05 09:10:08;;;;;;;35.40;23.55;;;;;;;;;;5066126;28;20047;-78
2022/11/05 09:12:33;;;;;;;32.05;23.08;;;;;;;;;;5061566;28;20177;-79
2022/11/05 09:14:58;;;;;;;32.83;22.90;;;;;;;;;;5064602;28;20430;-80
2022/11/05 09:17:23;;;;;;;29.15;22.00;;;;;;;;;;5071638;28;20021;-79
2022/11/05 09:19:48;;;;;;;37.50;22.10;;;;;;;;;;5065484;28;20029;-77
2022/11/05 09:22:14;;;;;;;33.00;21.93;;;;;;;;;;5071346;28;20571;-78
2022/11/05 09:24:40;;;;;;;30.17;20.42;;;;;;;;;;5074369;28;20870;-78
2022/11/05 09:27:09;;;;;;;34.15;19.33;;;;;;;;;;5053547;28;20032;-79
2022/11/05 09:29:34;;;;;;;26.67;19.27;;;;;;;;;;5058502;28;20021;-79
2022/11/05 09:31:59;;;;;;;38.58;18.95;;;;;;;;;;5054724;28;20021;-79
2022/11/05 09:34:24;;;;;;;23.67;16.88;;;;;;;;;;5063767;28;20025;-78
2022/11/05 09:36:50;;;;;;;24.38;17.13;;;;;;;;;;5070819;28;20092;-78
2022/11/05 09:39:15;;;;;;;20.47;15.90;;;;;;;;;;5093366;28;20386;-80
2022/11/05 09:41:42;;;;;;;22.35;16.17;;;;;;;;;;5071509;28;20629;-78
2022/11/05 09:44:12;;;;;;;22.63;15.60;;;;;;;;;;5072820;28;20031;-77
2022/11/05 09:46:49;;;;;;;20.65;14.48;;;;;;;;;;5075068;28;20038;-79
2022/11/05 09:49:21;;;;;;;19.75;13.25;;;;;;;;;;5081047;28;20028;-79
2022/11/05 09:51:46;;;;;;;18.63;13.75;;;;;;;;;;5085471;28;20089;-77
2022/11/05 09:54:13;;;;;;;22.48;14.32;;;;;;;;;;5072068;28;20020;-79
2022/11/05 09:56:39;;;;;;;18.13;12.57;;;;;;;;;;5071458;28;20063;-77
2022/11/05 09:59:10;;;;;;;19.08;12.60;;;;;;;;;;5080309;28;20074;-78
2022/11/05 10:01:36;;;;;;;15.43;10.93;;;;;;;;;;5087882;28;20494;-79
2022/11/05 10:04:06;;;;;;;22.20;11.50;;;;;;;;;;5071340;28;20036;-80
2022/11/05 10:06:31;;;;;;;16.70;11.63;;;;;;;;;;5066809;28;20020;-81
2022/11/05 10:09:01;;;;;;;12.63;10.43;;;;;;;;;;5062749;28;20043;-79
2022/11/05 10:11:36;;;;;;;17.05;10.85;;;;;;;;;;5070004;28;20498;-80
2022/11/05 10:14:07;;;;;;;13.93;10.02;;;;;;;;;;5061704;28;20023;-80
2022/11/05 10:16:38;;;;;;;16.80;10.10;;;;;;;;;;5064931;28;20032;-81
2022/11/05 10:19:08;;;;;;;12.48;8.60;;;;;;;;;;5057431;28;20025;-77
2022/11/05 10:21:34;;;;;;;12.90;8.25;;;;;;;;;;5059714;28;20070;-79
2022/11/05 10:24:00;;;;;;;14.75;8.18;;;;;;;;;;5059215;28;20029;-77
2022/11/05 10:26:26;;;;;;;13.85;8.20;;;;;;;;;;5071665;28;20081;-78
2022/11/05 10:28:52;;;;;;;12.80;8.45;;;;;;;;;;5072821;28;20027;-79
2022/11/05 10:31:19;;;;;;;13.93;7.95;;;;;;;;;;5070328;28;20020;-77
2022/11/05 10:33:50;;;;;;;11.50;8.38;;;;;;;;;;5069632;28;20386;-77
2022/11/05 10:36:23;;;;;;;14.68;8.38;;;;;;;;;;5069393;28;20032;-78
2022/11/05 10:38:48;;;;;;;12.10;7.55;;;;;;;;;;5057304;28;20021;-78
2022/11/05 10:41:40;;;;;;;11.23;8.02;;;;;;;;;;5062696;28;20115;-79
2022/11/05 10:44:05;;;;;;;16.65;8.55;;;;;;;;;;5060609;28;20087;-79
2022/11/05 10:46:34;;;;;;;13.73;7.87;;;;;;;;;;5065494;28;20035;-79
2022/11/05 10:49:17;;;;;;;17.52;8.48;;;;;;;;;;5067923;28;20274;-79
2022/11/05 10:51:42;;;;;;;12.18;7.85;;;;;;;;;;5069926;28;20024;-80
2022/11/05 10:54:12;;;;;;;11.18;7.85;;;;;;;;;;5058450;28;20078;-84
2022/11/05 10:56:38;;;;;;;12.52;7.75;;;;;;;;;;5053696;28;20025;-80
2022/11/05 10:59:05;;;;;;;22.98;7.70;;;;;;;;;;5069293;28;20028;-80
2022/11/05 11:01:31;;;;;;;12.88;7.88;;;;;;;;;;5062320;28;20059;-81
2022/11/05 11:04:04;;;;;;;14.55;6.00;;;;;;;;;;5085828;28;20451;-80
2022/11/05 11:06:30;;;;;;;10.82;6.20;;;;;;;;;;5068243;28;20042;-82
2022/11/05 11:08:57;;;;;;;11.55;6.35;;;;;;;;;;5061870;28;20070;-79
2022/11/05 11:11:27;;;;;;;12.10;6.10;;;;;;;;;;5062937;28;20363;-81
2022/11/05 11:13:56;;;;;;;13.25;6.13;;;;;;;;;;5057460;28;20024;-81
2022/11/05 11:16:22;;;;;;;11.43;5.75;;;;;;;;;;5057206;28;20016;-83
2022/11/05 11:18:51;;;;;;;7.55;5.68;;;;;;;;;;5057240;28;20020;-83
2022/11/05 11:21:25;;;;;;;8.90;5.55;;;;;;;;;;5071026;28;20029;-82
2022/11/05 11:24:16;;;;;;;8.45;5.32;;;;;;;;;;5048308;28;20340;-82
2022/11/05 11:26:42;;;;;;;7.70;5.38;;;;;;;;;;5045710;28;20051;-81
2022/11/05 11:29:27;;;;;;;8.80;4.43;;;;;;;;;;5057883;28;20127;-80
2022/11/05 11:31:56;;;;;;;7.85;4.68;;;;;;;;;;5042293;28;20034;-83
2022/11/05 11:34:37;;;;;;;6.72;4.47;;;;;;;;;;5042678;28;20017;-80
2022/11/05 11:37:13;;;;;;;8.40;5.00;;;;;;;;;;5065586;28;20402;-81
2022/11/05 11:39:39;;;;;;;10.15;4.90;;;;;;;;;;5065765;28;20090;-82
2022/11/05 11:42:10;;;;;;;8.48;4.60;;;;;;;;;;5067921;28;20017;-80
2022/11/05 11:44:40;;;;;;;7.13;4.50;;;;;;;;;;5071369;28;20024;-81
2022/11/05 11:47:10;;;;;;;5.68;3.88;;;;;;;;;;5063800;28;20025;-83
2022/11/05 11:49:45;;;;;;;8.38;4.57;;;;;;;;;;5069012;28;20034;-81
2022/11/05 11:52:10;;;;;;;;;;;;;;;;;;5070726;28;20025;-83
2022/11/05 11:54:35;;;;;;;10.95;4.32;;;;;;;;;;5070464;28;19966;-82
2022/11/05 11:57:01;;;;;;;9.40;4.50;;;;;;;;;;5071761;28;20396;-82
2022/11/05 11:59:27;;;;;;;6.20;3.33;;;;;;;;;;5070878;28;20024;-82
2022/11/05 12:01:58;;;;;;;9.68;3.90;;;;;;;;;;5068695;28;20024;-82
2022/11/05 12:04:35;;;;;;;7.93;3.60;;;;;;;;;;5069541;28;20039;-80
2022/11/05 12:07:08;;;;;;;8.80;3.63;;;;;;;;;;5069160;28;20021;-81
2022/11/05 12:09:39;;;;;;;7.30;3.42;;;;;;;;;;5068455;28;20153;-80
2022/11/05 12:12:08;;;;;;;8.80;3.17;;;;;;;;;;5072255;28;20498;-80
2022/11/05 12:14:34;;;;;;;12.48;3.85;;;;;;;;;;5058864;28;20730;-82
2022/11/05 12:17:08;;;;;;;7.57;3.03;;;;;;;;;;5065375;28;20021;-81
2022/11/05 12:19:36;;;;;;;9.57;3.42;;;;;;;;;;5066818;28;20277;-81
2022/11/05 12:22:08;;;;;;;4.47;2.85;;;;;;;;;;5068715;28;20100;-81
2022/11/05 12:24:52;;;;;;;8.88;3.33;;;;;;;;;;5058653;28;20060;-80
2022/11/05 12:27:37;;;;;;;4.03;1.97;;;;;;;;;;5064256;28;20013;-80
2022/11/05 12:30:11;;;;;;;5.18;2.65;;;;;;;;;;5065449;28;20090;-81
2022/11/05 12:32:36;;;;;;;;;;;;;;;;;;5072429;28;20119;-81
2022/11/05 12:35:01;;;;;;;4.80;3.03;;;;;;;;;;5070228;28;19916;-82
2022/11/05 12:37:30;;;;;;;16.58;2.58;;;;;;;;;;5070457;28;20043;-80
2022/11/05 12:39:55;;;;;;;4.72;2.40;;;;;;;;;;5069832;28;20047;-74
2022/11/05 12:42:32;;;;;;;7.30;2.80;;;;;;;;;;5071281;28;20443;-81
2022/11/05 12:45:02;;;;;;;4.93;2.42;;;;;;;;;;5072492;28;20090;-81
2022/11/05 12:47:37;;;;;;;8.48;2.60;;;;;;;;;;5068267;28;20135;-84
2022/11/05 12:50:10;;;;;;;4.28;2.03;;;;;;;;;;5074081;28;20734;-81
2022/11/05 12:52:41;;;;;;;11.68;2.90;;;;;;;;;;5076060;28;20510;-81
2022/11/05 12:55:12;;;;;;;7.85;2.50;;;;;;;;;;5073220;28;20070;-80
2022/11/05 12:57:39;;;;;;;5.20;2.60;;;;;;;;;;5084289;28;20025;-74
2022/11/05 13:00:13;;;;;;;5.45;2.65;;;;;;;;;;5069803;28;20360;-69
2022/11/05 13:02:41;;;;;;;6.32;3.10;;;;;;;;;;5074715;28;20039;-71
2022/11/05 13:05:26;;;;;;;3.35;2.10;;;;;;;;;;5069594;28;20032;-81
2022/11/05 13:08:00;;;;;;;5.03;2.67;;;;;;;;;;5055248;28;20075;-80
2022/11/05 13:10:25;;;;;;;;;;;;;;;;;;5066643;28;20079;-80
2022/11/05 13:12:56;;;;;;;4.53;2.37;;;;;;;;;;5064680;28;19996;-79
2022/11/05 13:15:30;;;;;;;6.18;2.10;;;;;;;;;;5059691;28;20021;-80
2022/11/05 13:18:01;;;;;;;3.78;2.03;;;;;;;;;;5057046;28;20040;-78
2022/11/05 13:20:32;;;;;;;5.82;2.63;;;;;;;;;;5070941;28;20109;-81
2022/11/05 13:22:59;;;;;;;4.80;2.20;;;;;;;;;;5057240;28;20474;-78
2022/11/05 13:25:29;;;;;;;6.15;2.45;;;;;;;;;;5063403;28;20024;-79
2022/11/05 13:28:09;;;;;;;5.53;2.60;;;;;;;;;;5071261;28;20074;-81
2022/11/05 13:30:40;;;;;;;6.05;2.38;;;;;;;;;;5080793;28;20035;-79
2022/11/05 13:33:19;;;;;;;3.35;1.90;;;;;;;;;;5070850;28;20017;-80
2022/11/05 13:35:45;;;;;;;4.30;1.77;;;;;;;;;;5072285;28;20360;-80
2022/11/05 13:41:26;;;;;;;4.93;2.22;;;;;;;;;;5069880;28;20036;-82
2022/11/05 13:43:51;;;;;;;5.05;2.47;;;;;;;;;;5075190;28;20111;-81
2022/11/05 13:46:23;;;;;;;6.53;2.27;;;;;;;;;;5072471;28;20107;-80
2022/11/05 13:48:55;;;;;;;5.60;2.38;;;;;;;;;;5065933;28;20649;-80
2022/11/05 13:51:23;;;;;;;4.43;2.20;;;;;;;;;;5067568;28;20031;-80
2022/11/05 13:54:06;;;;;;;4.95;1.90;;;;;;;;;;5069869;28;20352;-80
2022/11/05 13:56:53;;;;;;;5.30;2.13;;;;;;;;;;5062138;28;20058;-80
2022/11/05 13:59:33;;;;;;;5.20;1.92;;;;;;;;;;5073713;28;20016;-80
2022/11/05 14:02:01;;;;;;;6.50;1.83;;;;;;;;;;5062362;28;20553;-80
2022/11/05 14:04:26;;;;;;;6.60;2.10;;;;;;;;;;5072076;28;20016;-81
2022/11/05 14:06:55;;;;;;;10.57;2.63;;;;;;;;;;5081744;28;20447;-80
2022/11/05 14:09:25;;;;;;;4.00;1.95;;;;;;;;;;5066044;28;20271;-79
2022/11/05 14:11:52;;;;;;;10.23;2.50;;;;;;;;;;5066897;28;20024;-80
2022/11/05 14:14:20;;;;;;;5.20;2.58;;;;;;;;;;5064274;28;20112;-80
2022/11/05 14:16:50;;;;;;;7.65;2.08;;;;;;;;;;5061332;28;20039;-80
2022/11/05 14:19:18;;;;;;;4.30;2.13;;;;;;;;;;5058472;28;20012;-80
2022/11/05 14:21:53;;;;;;;9.55;2.53;;;;;;;;;;5069144;28;20021;-80
2022/11/05 14:24:21;;;;;;;5.75;2.20;;;;;;;;;;5063649;28;20085;-80
2022/11/05 14:27:01;;;;;;;5.32;2.15;;;;;;;;;;5072453;28;20032;-80
2022/11/05 14:29:37;;;;;;;6.63;1.92;;;;;;;;;;5086409;28;20024;-80
2022/11/05 14:32:03;;;;;;;6.82;1.90;;;;;;;;;;5071686;28;20103;-80
2022/11/05 14:34:40;;;;;;;5.88;2.13;;;;;;;;;;5073068;28;20025;-79
2022/11/05 14:37:25;;;;;;;3.13;1.70;;;;;;;;;;5081744;28;20031;-80
2022/11/05 14:39:51;;;;;;;4.65;2.08;;;;;;;;;;5069258;28;20080;-79
2022/11/05 14:42:29;;;;;;;7.03;1.98;;;;;;;;;;5059534;28;20055;-78
2022/11/05 14:44:57;;;;;;;4.70;2.20;;;;;;;;;;5055749;28;20499;-74
2022/11/05 14:47:24;;;;;;;6.03;2.15;;;;;;;;;;5064594;28;20042;-76
2022/11/05 14:50:21;;;;;;;4.53;1.70;;;;;;;;;;5068127;28;20021;-79
2022/11/05 14:52:51;;;;;;;4.90;2.30;;;;;;;;;;5042835;28;20048;-80
2022/11/05 14:55:35;;;;;;;4.07;1.63;;;;;;;;;;5055118;28;20032;-79
2022/11/05 14:58:01;;;;;;;3.92;1.77;;;;;;;;;;5067601;28;20021;-78
2022/11/05 15:00:27;;;;;;;9.52;2.22;;;;;;;;;;5073795;28;20024;-79
2022/11/05 15:03:00;;;;;;;3.80;1.77;;;;;;;;;;5076071;28;20438;-80
2022/11/05 15:05:34;;;;;;;5.47;2.05;;;;;;;;;;5073655;28;20279;-80
2022/11/05 15:08:19;;;;;;;4.65;2.13;;;;;;;;;;5064370;28;20528;-80
2022/11/05 15:10:46;;;;;;;5.00;2.17;;;;;;;;;;5056272;28;20020;-73
2022/11/05 15:13:22;;;;;;;4.45;1.95;;;;;;;;;;5053309;28;20041;-76
2022/11/05 15:15:49;;;;;;;4.88;2.65;;;;;;;;;;5032260;28;20031;-77
2022/11/05 15:18:24;;;;;;;5.80;2.50;;;;;;;;;;5029391;28;20020;-78
2022/11/05 15:20:52;;;;;;;5.43;2.25;;;;;;;;;;5023334;28;20016;-71